createdAt,value
2018-12-26T00:01:09.550Z,3.37
2018-12-26T00:03:38.120Z,9.73
2018-12-26T00:06:06.674Z,3.30
2018-12-26T00:08:35.253Z,3.47
2018-12-26T00:11:03.810Z,3.20
2018-12-26T00:13:32.419Z,3.73
2018-12-26T00:16:00.971Z,4.70
2018-12-26T00:18:29.657Z,5.27
2018-12-26T00:20:59.838Z,3.60
2018-12-26T00:23:28.395Z,3.13
2018-12-26T00:26:01.562Z,3.57
2018-12-26T00:28:27.269Z,3.03
2018-12-26T00:31:14.968Z,4.20
2018-12-26T00:33:43.574Z,10.27
2018-12-26T00:36:12.136Z,4.27
2018-12-26T00:38:40.719Z,5.07
2018-12-26T00:41:09.268Z,14.27
2018-12-26T00:43:37.855Z,8.77
2018-12-26T00:46:06.466Z,4.20
2018-12-26T00:48:35.025Z,3.80
2018-12-26T00:51:03.604Z,4.63
2018-12-26T00:53:32.169Z,3.57
2018-12-26T00:56:00.754Z,3.97
2018-12-26T00:58:29.317Z,5.87
2018-12-26T01:00:57.909Z,5.13
2018-12-26T01:06:13.998Z,6.50
2018-12-26T01:08:42.562Z,5.17
2018-12-26T01:11:11.145Z,4.80
2018-12-26T01:13:39.759Z,3.03
2018-12-26T01:16:08.355Z,6.87
2018-12-26T01:18:36.944Z,4.53
2018-12-26T01:21:05.522Z,4.13
2018-12-26T01:23:34.079Z,8.83
2018-12-26T01:26:02.657Z,3.33
2018-12-26T01:28:31.218Z,6.27
2018-12-26T01:31:18.990Z,11.53
2018-12-26T01:33:47.564Z,6.57
2018-12-26T01:36:16.147Z,4.23
2018-12-26T01:38:44.716Z,6.53
2018-12-26T01:41:13.314Z,6.00
2018-12-26T01:43:41.878Z,4.47
2018-12-26T01:46:10.448Z,2.90
2018-12-26T01:48:39.007Z,4.10
2018-12-26T01:51:07.582Z,8.40
2018-12-26T01:53:36.173Z,3.23
2018-12-26T01:56:04.742Z,4.10
2018-12-26T01:58:33.331Z,3.30
2018-12-26T02:01:01.884Z,7.63
2018-12-26T02:03:30.479Z,4.97
2018-12-26T02:05:59.051Z,4.93
2018-12-26T02:08:27.632Z,4.27
2018-12-26T02:10:56.189Z,2.07
2018-12-26T02:13:24.769Z,2.67
2018-12-26T02:15:53.317Z,3.93
2018-12-26T02:18:21.913Z,5.50
2018-12-26T02:21:11.294Z,4.93
2018-12-26T02:23:39.868Z,5.10
2018-12-26T02:26:08.449Z,13.60
2018-12-26T02:28:37.056Z,3.77
2018-12-26T02:34:19.519Z,4.47
2018-12-26T02:36:48.102Z,4.23
2018-12-26T02:39:16.684Z,3.53
2018-12-26T02:41:45.268Z,7.40
2018-12-26T02:46:47.535Z,7.40
2018-12-26T02:49:16.139Z,10.90
2018-12-26T02:51:44.691Z,5.20
2018-12-26T02:54:13.271Z,6.60
2018-12-26T02:56:46.321Z,4.37
2018-12-26T02:59:12.149Z,9.43
2018-12-26T03:01:40.724Z,10.03
2018-12-26T03:04:09.323Z,7.47
2018-12-26T03:06:37.874Z,5.20
2018-12-26T03:09:27.242Z,5.93
2018-12-26T03:11:55.795Z,9.47
2018-12-26T03:14:24.382Z,6.07
2018-12-26T03:16:52.924Z,6.73
2018-12-26T03:19:21.528Z,6.07
2018-12-26T03:21:50.104Z,7.27
2018-12-26T03:24:18.690Z,7.83
2018-12-26T03:26:55.792Z,9.33
2018-12-26T03:29:17.568Z,8.27
2018-12-26T03:31:46.139Z,11.63
2018-12-26T03:34:14.738Z,13.53
2018-12-26T03:37:04.110Z,8.87
2018-12-26T03:39:32.710Z,12.73
2018-12-26T03:42:22.067Z,12.63
2018-12-26T03:45:11.285Z,22.90
2018-12-26T03:48:00.624Z,15.43
2018-12-26T03:50:29.207Z,9.40
2018-12-26T03:53:18.402Z,12.43
2018-12-26T03:55:46.990Z,12.70
2018-12-26T04:01:23.677Z,9.27
2018-12-26T04:04:12.878Z,11.40
2018-12-26T04:06:41.566Z,12.73
2018-12-26T04:09:11.756Z,10.00
2018-12-26T04:12:01.127Z,22.60
2018-12-26T04:14:29.680Z,12.83
2018-12-26T04:17:19.059Z,16.00
2018-12-26T04:20:08.432Z,15.17
2018-12-26T04:22:37.001Z,11.30
2018-12-26T04:25:26.380Z,10.97
2018-12-26T04:27:54.948Z,11.10
2018-12-26T04:30:23.548Z,11.03
2018-12-26T04:32:52.118Z,11.00
2018-12-26T04:35:20.756Z,10.80
2018-12-26T04:37:49.288Z,11.20
2018-12-26T04:40:17.884Z,10.40
2018-12-26T04:42:46.462Z,11.10
2018-12-26T04:45:34.185Z,13.03
2018-12-26T04:50:47.406Z,13.93
2018-12-26T04:53:15.974Z,13.87
2018-12-26T04:55:44.574Z,11.93
2018-12-26T04:58:13.161Z,13.57
2018-12-26T05:00:41.759Z,12.10
2018-12-26T05:03:10.327Z,14.10
2018-12-26T05:05:38.945Z,10.37
2018-12-26T05:08:07.522Z,17.50
2018-12-26T05:10:36.086Z,18.57
2018-12-26T05:13:04.677Z,18.30
2018-12-26T05:15:33.246Z,17.50
2018-12-26T05:18:01.833Z,14.50
2018-12-26T05:20:30.400Z,14.00
2018-12-26T05:22:59.004Z,11.77
2018-12-26T05:25:27.569Z,17.83
2018-12-26T05:28:15.493Z,18.43
2018-12-26T05:30:44.073Z,14.97
2018-12-26T05:33:12.657Z,17.37
2018-12-26T05:35:41.219Z,17.93
2018-12-26T05:38:09.813Z,21.40
2018-12-26T05:40:38.380Z,20.27
2018-12-26T05:43:06.958Z,15.77
2018-12-26T05:45:54.669Z,22.03
2018-12-26T05:48:23.239Z,13.83
2018-12-26T05:50:51.793Z,18.47
2018-12-26T05:53:20.388Z,20.33
2018-12-26T05:55:48.962Z,17.40
2018-12-26T05:58:17.546Z,11.53
2018-12-26T06:00:46.114Z,17.03
2018-12-26T06:03:14.710Z,21.93
2018-12-26T06:05:43.294Z,12.80
2018-12-26T06:08:11.913Z,24.30
2018-12-26T06:10:40.493Z,15.33
2018-12-26T06:13:09.079Z,17.87
2018-12-26T06:15:37.644Z,16.27
2018-12-26T06:18:08.318Z,14.87
2018-12-26T06:20:36.551Z,15.67
2018-12-26T06:23:05.143Z,15.90
2018-12-26T06:25:33.724Z,15.07
2018-12-26T06:28:02.336Z,19.37
2018-12-26T06:30:30.908Z,16.43
2018-12-26T06:32:59.505Z,17.43
2018-12-26T06:35:28.075Z,21.73
2018-12-26T06:37:56.666Z,14.70
2018-12-26T06:40:44.481Z,16.67
2018-12-26T06:43:13.068Z,20.63
2018-12-26T06:45:41.643Z,19.90
2018-12-26T06:48:10.235Z,18.63
2018-12-26T06:50:38.815Z,15.57
2018-12-26T06:53:07.403Z,16.60
2018-12-26T06:55:36.010Z,16.00
2018-12-26T06:58:04.593Z,19.40
2018-12-26T07:00:33.204Z,21.87
2018-12-26T07:03:01.772Z,21.37
2018-12-26T07:05:49.550Z,16.97
2018-12-26T07:08:18.105Z,19.13
2018-12-26T07:10:46.694Z,19.50
2018-12-26T07:13:15.284Z,17.60
2018-12-26T07:15:43.873Z,14.80
2018-12-26T07:18:31.685Z,20.47
2018-12-26T07:21:00.275Z,19.90
2018-12-26T07:23:28.840Z,15.93
2018-12-26T07:25:57.443Z,16.87
2018-12-26T07:28:26.046Z,15.97
2018-12-26T07:30:54.630Z,19.40
2018-12-26T07:33:23.201Z,13.40
2018-12-26T07:35:51.782Z,13.93
2018-12-26T07:38:20.357Z,16.10
2018-12-26T07:40:48.941Z,15.43
2018-12-26T07:43:17.503Z,16.80
2018-12-26T07:45:46.091Z,16.93
2018-12-26T07:48:14.647Z,22.67
2018-12-26T07:50:43.249Z,15.27
2018-12-26T07:53:11.844Z,15.03
2018-12-26T07:55:40.542Z,17.23
2018-12-26T07:58:17.514Z,15.77
2018-12-26T08:00:41.029Z,12.60
2018-12-26T08:03:09.593Z,15.17
2018-12-26T08:05:57.418Z,15.07
2018-12-26T08:08:25.981Z,15.10
2018-12-26T08:10:54.576Z,25.67
2018-12-26T08:13:23.140Z,13.07
2018-12-26T08:15:51.722Z,16.17
2018-12-26T08:18:20.292Z,15.27
2018-12-26T08:20:48.886Z,13.77
2018-12-26T08:23:36.757Z,14.90
2018-12-26T08:26:05.343Z,15.10
2018-12-26T08:28:33.907Z,17.33
2018-12-26T08:31:02.527Z,18.80
2018-12-26T08:33:31.107Z,15.53
2018-12-26T08:35:59.736Z,15.07
2018-12-26T08:38:28.332Z,13.60
2018-12-26T08:40:56.887Z,15.07
2018-12-26T08:43:25.485Z,18.80
2018-12-26T08:45:54.056Z,13.60
2018-12-26T08:48:22.650Z,12.70
2018-12-26T08:50:51.207Z,9.97
2018-12-26T08:53:19.789Z,15.43
2018-12-26T08:55:48.365Z,14.60
2018-12-26T08:58:16.951Z,11.43
2018-12-26T09:00:45.512Z,11.10
2018-12-26T09:03:33.342Z,9.23
2018-12-26T09:06:01.905Z,12.10
2018-12-26T09:08:30.503Z,10.10
2018-12-26T09:10:59.052Z,14.73
2018-12-26T09:13:27.736Z,11.90
2018-12-26T09:15:56.446Z,12.57
2018-12-26T09:18:25.031Z,15.23
2018-12-26T09:20:53.592Z,10.03
2018-12-26T09:23:22.183Z,11.57
2018-12-26T09:26:11.518Z,8.83
2018-12-26T09:28:43.866Z,7.90
2018-12-26T09:31:10.385Z,8.47
2018-12-26T09:33:38.973Z,7.90
2018-12-26T09:36:07.528Z,9.40
2018-12-26T09:38:36.140Z,9.97
2018-12-26T09:41:04.699Z,9.60
2018-12-26T09:43:33.354Z,7.10
2018-12-26T09:46:01.921Z,7.37
2018-12-26T09:48:30.504Z,8.43
2018-12-26T09:50:59.059Z,7.87
2018-12-26T09:53:27.637Z,6.40
2018-12-26T09:55:56.202Z,8.20
2018-12-26T09:58:24.782Z,7.23
2018-12-26T10:00:53.350Z,6.97
2018-12-26T10:03:21.943Z,8.70
2018-12-26T10:05:50.503Z,9.80
2018-12-26T10:08:19.086Z,7.03
2018-12-26T10:10:47.657Z,6.20
2018-12-26T10:13:16.256Z,6.70
2018-12-26T10:16:05.446Z,8.53
2018-12-26T10:21:08.344Z,7.60
2018-12-26T10:23:36.956Z,6.50
2018-12-26T10:26:05.512Z,8.23
2018-12-26T10:28:34.098Z,7.00
2018-12-26T10:31:02.661Z,5.73
2018-12-26T10:33:31.241Z,7.67
2018-12-26T10:35:59.815Z,8.97
2018-12-26T10:38:28.401Z,7.00
2018-12-26T10:40:56.953Z,6.73
2018-12-26T10:43:25.539Z,5.73
2018-12-26T10:45:54.185Z,8.80
2018-12-26T10:48:22.796Z,8.90
2018-12-26T10:50:51.390Z,8.80
2018-12-26T10:53:19.966Z,7.63
2018-12-26T10:58:23.046Z,8.20
2018-12-26T11:00:51.626Z,9.97
2018-12-26T11:03:20.189Z,7.07
2018-12-26T11:05:48.785Z,10.83
2018-12-26T11:08:17.379Z,11.20
2018-12-26T11:10:45.962Z,8.33
2018-12-26T11:13:14.525Z,7.73
2018-12-26T11:15:43.119Z,7.90
2018-12-26T11:21:19.776Z,8.50
2018-12-26T11:23:48.340Z,9.23
2018-12-26T11:26:16.934Z,7.50
2018-12-26T11:28:45.501Z,8.60
2018-12-26T11:33:49.134Z,9.77
2018-12-26T11:36:17.787Z,8.60
2018-12-26T11:38:46.339Z,8.97
2018-12-26T11:41:14.918Z,7.67
2018-12-26T11:43:43.495Z,9.93
2018-12-26T11:46:12.071Z,7.43
2018-12-26T11:48:40.631Z,7.20
2018-12-26T11:51:09.222Z,11.57
2018-12-26T11:53:37.786Z,8.73
2018-12-26T11:56:06.381Z,7.30
2018-12-26T11:58:34.940Z,6.13
2018-12-26T12:01:03.521Z,8.43
2018-12-26T12:03:32.105Z,7.17
2018-12-26T12:06:00.684Z,8.93
2018-12-26T12:08:29.244Z,7.30
2018-12-26T12:11:18.615Z,6.10
2018-12-26T12:13:47.188Z,10.50
2018-12-26T12:16:15.799Z,11.63
2018-12-26T12:18:44.435Z,8.27
2018-12-26T12:21:13.018Z,11.53
2018-12-26T12:23:41.565Z,8.87
2018-12-26T12:26:30.783Z,8.00
2018-12-26T12:28:59.351Z,8.33
2018-12-26T12:31:27.963Z,12.70
2018-12-26T12:33:56.546Z,9.47
2018-12-26T12:36:25.211Z,12.93
2018-12-26T12:39:14.406Z,11.77
2018-12-26T12:41:42.986Z,9.43
2018-12-26T12:44:32.177Z,9.70
2018-12-26T12:47:00.771Z,11.43
2018-12-26T12:49:50.171Z,12.53
2018-12-26T12:52:18.757Z,11.33
2018-12-26T12:54:47.317Z,12.40
2018-12-26T12:57:35.176Z,12.00
2018-12-26T13:00:23.125Z,14.90
2018-12-26T13:03:12.354Z,10.13
2018-12-26T13:06:01.710Z,15.20
2018-12-26T13:08:30.307Z,15.20
2018-12-26T13:10:58.876Z,15.23
2018-12-26T13:13:27.476Z,13.87
2018-12-26T13:15:56.056Z,12.37
2018-12-26T13:18:24.639Z,18.63
2018-12-26T13:20:53.216Z,11.53
2018-12-26T13:23:21.817Z,14.33
2018-12-26T13:25:50.365Z,15.30
2018-12-26T13:28:18.965Z,17.03
2018-12-26T13:30:47.530Z,17.93
2018-12-26T13:33:35.363Z,21.20
2018-12-26T13:36:03.943Z,13.70
2018-12-26T13:38:32.531Z,17.20
2018-12-26T13:41:01.089Z,18.33
2018-12-26T13:43:29.669Z,13.87
2018-12-26T13:45:58.246Z,20.50
2018-12-26T13:48:34.316Z,14.27
2018-12-26T13:51:02.879Z,17.57
2018-12-26T13:53:31.481Z,14.77
2018-12-26T13:56:00.030Z,13.67
2018-12-26T13:58:28.603Z,15.27
2018-12-26T14:00:57.189Z,15.63
2018-12-26T14:03:25.745Z,20.17
2018-12-26T14:06:13.471Z,15.00
2018-12-26T14:08:42.038Z,20.17
2018-12-26T14:11:10.643Z,12.47
2018-12-26T14:13:39.227Z,14.90
2018-12-26T14:16:07.833Z,14.80
2018-12-26T14:18:36.401Z,13.27
2018-12-26T14:21:04.984Z,11.37
2018-12-26T14:23:33.566Z,17.00
2018-12-26T14:26:02.150Z,17.70
2018-12-26T14:28:30.711Z,13.53
2018-12-26T14:30:59.311Z,11.37
2018-12-26T14:33:27.871Z,14.80
2018-12-26T14:36:17.246Z,17.50
2018-12-26T14:38:45.819Z,16.53
2018-12-26T14:41:16.150Z,14.07
2018-12-26T14:43:44.716Z,23.80
2018-12-26T14:46:13.323Z,15.37
2018-12-26T14:48:41.871Z,12.40
2018-12-26T14:51:10.463Z,14.20
2018-12-26T14:53:39.037Z,13.97
2018-12-26T14:56:07.637Z,20.23
2018-12-26T14:58:36.212Z,12.80
2018-12-26T15:01:04.821Z,11.40
2018-12-26T15:03:33.386Z,11.07
2018-12-26T15:06:01.990Z,10.60
2018-12-26T15:08:30.569Z,11.30
2018-12-26T15:10:59.153Z,13.83
2018-12-26T15:13:27.718Z,12.87
2018-12-26T15:15:56.311Z,15.40
2018-12-26T15:18:24.885Z,14.37
2018-12-26T15:20:53.490Z,12.03
2018-12-26T15:23:22.055Z,12.07
2018-12-26T15:25:50.656Z,9.97
2018-12-26T15:28:19.222Z,12.87
2018-12-26T15:30:47.825Z,11.23
2018-12-26T15:33:16.387Z,9.03
2018-12-26T15:35:44.998Z,12.40
2018-12-26T15:38:13.576Z,14.43
2018-12-26T15:40:42.146Z,11.50
2018-12-26T15:43:10.747Z,11.03
2018-12-26T15:46:00.130Z,13.90
2018-12-26T15:48:28.703Z,10.37
2018-12-26T15:50:57.274Z,12.67
2018-12-26T15:53:25.881Z,13.10
2018-12-26T15:55:54.437Z,9.83
2018-12-26T15:58:23.092Z,8.87
2018-12-26T16:00:51.656Z,13.13
2018-12-26T16:03:20.343Z,10.77
2018-12-26T16:05:48.888Z,8.97
2018-12-26T16:08:36.725Z,9.43
2018-12-26T16:11:05.346Z,12.73
2018-12-26T16:13:33.943Z,11.43
2018-12-26T16:16:02.516Z,9.97
2018-12-26T16:18:31.101Z,12.53
2018-12-26T16:20:59.673Z,11.73
2018-12-26T16:23:28.269Z,14.80
2018-12-26T16:25:56.854Z,25.30
2018-12-26T16:28:25.464Z,18.03
2018-12-26T16:30:54.050Z,17.30
2018-12-26T16:33:22.650Z,17.67
2018-12-26T16:35:51.249Z,15.07
2018-12-26T16:38:19.852Z,13.77
2018-12-26T16:40:48.421Z,16.23
2018-12-26T16:43:17.004Z,15.70
2018-12-26T16:46:04.767Z,15.40
2018-12-26T16:48:33.359Z,13.97
2018-12-26T16:51:01.929Z,12.23
2018-12-26T16:53:30.541Z,14.87
2018-12-26T16:55:59.111Z,14.67
2018-12-26T16:58:27.718Z,16.40
2018-12-26T17:00:56.310Z,11.87
2018-12-26T17:03:24.885Z,12.67
2018-12-26T17:05:53.447Z,12.73
2018-12-26T17:08:41.292Z,14.27
2018-12-26T17:11:09.864Z,12.83
2018-12-26T17:13:38.617Z,15.30
2018-12-26T17:16:08.815Z,12.70
2018-12-26T17:18:37.382Z,12.50
2018-12-26T17:21:05.982Z,17.57
2018-12-26T17:23:34.554Z,16.23
2018-12-26T17:26:03.157Z,12.57
2018-12-26T17:28:31.840Z,13.07
2018-12-26T17:31:04.266Z,13.60
2018-12-26T17:33:30.726Z,17.17
2018-12-26T17:35:59.428Z,13.13
2018-12-26T17:38:27.995Z,15.50
2018-12-26T17:40:56.602Z,14.87
2018-12-26T17:43:25.166Z,13.60
2018-12-26T17:45:53.769Z,18.53
2018-12-26T17:48:22.331Z,13.30
2018-12-26T17:50:50.943Z,14.37
2018-12-26T17:56:48.239Z,17.50
2018-12-26T18:05:32.747Z,16.70
2018-12-26T18:08:01.377Z,14.23
2018-12-26T18:10:29.981Z,20.90
2018-12-26T18:12:58.556Z,18.73
2018-12-26T18:15:46.473Z,18.07
2018-12-26T18:18:15.042Z,23.23
2018-12-26T18:20:43.725Z,18.53
2018-12-26T18:23:12.307Z,21.20
2018-12-26T18:25:40.885Z,24.17
2018-12-26T18:28:09.480Z,18.50
2018-12-26T18:30:38.067Z,18.67
2018-12-26T18:33:06.669Z,17.83
2018-12-26T18:35:35.268Z,18.00
2018-12-26T18:38:03.887Z,24.83
2018-12-26T18:40:32.477Z,19.87
2018-12-26T18:43:01.143Z,25.20
2018-12-26T18:45:29.719Z,20.97
2018-12-26T18:47:58.391Z,23.63
2018-12-26T18:50:26.961Z,23.03
2018-12-26T18:52:55.554Z,27.37
2018-12-26T18:55:24.138Z,31.67
2018-12-26T18:57:52.739Z,24.10
2018-12-26T19:00:21.323Z,24.53
2018-12-26T19:02:49.934Z,28.40
2018-12-26T19:05:18.502Z,27.63
2018-12-26T19:07:47.180Z,30.17
2018-12-26T19:10:15.853Z,27.57
2018-12-26T19:12:44.475Z,33.60
2018-12-26T19:18:00.569Z,31.80
2018-12-26T19:20:29.234Z,37.33
2018-12-26T19:22:57.900Z,39.27
2018-12-26T19:25:26.484Z,31.30
2018-12-26T19:27:55.154Z,43.17
2018-12-26T19:30:23.726Z,29.50
2018-12-26T19:32:52.494Z,36.97
2018-12-26T19:35:21.041Z,38.70
2018-12-26T19:37:49.669Z,28.63
2018-12-26T19:40:18.336Z,34.13
2018-12-26T19:42:47.012Z,29.40
2018-12-26T19:45:15.594Z,36.43
2018-12-26T19:48:03.386Z,37.93
2018-12-26T19:53:21.124Z,27.83
2018-12-26T19:55:49.778Z,30.77
2018-12-26T19:58:18.428Z,33.20
2018-12-26T20:00:46.948Z,27.53
2018-12-26T20:03:15.630Z,36.87
2018-12-26T20:05:44.270Z,33.00
2018-12-26T20:08:12.881Z,35.23
2018-12-26T20:10:41.458Z,31.27
2018-12-26T20:13:29.251Z,31.67
2018-12-26T20:18:42.614Z,31.20
2018-12-26T20:21:11.326Z,32.23
2018-12-26T20:23:39.941Z,41.70
2018-12-26T20:26:08.512Z,36.57
2018-12-26T20:28:37.287Z,43.07
2018-12-26T20:31:05.952Z,33.40
2018-12-26T20:33:34.556Z,36.53
2018-12-26T20:36:03.202Z,29.83
2018-12-26T20:38:31.783Z,40.13
2018-12-26T20:41:00.445Z,44.67
2018-12-26T20:43:29.020Z,36.43
2018-12-26T20:45:57.613Z,35.60
2018-12-26T20:48:26.368Z,33.37
2018-12-26T20:50:55.042Z,32.37
2018-12-26T20:53:23.618Z,36.63
2018-12-26T20:55:52.306Z,35.73
2018-12-26T20:58:20.877Z,42.57
2018-12-26T21:03:23.317Z,34.77
2018-12-26T21:05:51.926Z,41.87
2018-12-26T21:08:39.750Z,40.93
2018-12-26T21:11:08.355Z,37.33
2018-12-26T21:13:36.939Z,39.17
2018-12-26T21:16:05.530Z,38.27
2018-12-26T21:18:34.148Z,45.47
2018-12-26T21:21:02.961Z,35.23
2018-12-26T21:23:31.657Z,32.33
2018-12-26T21:26:00.242Z,48.87
2018-12-26T21:28:28.900Z,39.63
2018-12-26T21:30:57.597Z,35.93
2018-12-26T21:33:27.912Z,38.93
2018-12-26T21:35:56.518Z,34.27
2018-12-26T21:41:12.768Z,35.57
2018-12-26T21:43:41.520Z,36.03
2018-12-26T21:46:10.217Z,37.60
2018-12-26T21:48:38.825Z,40.77
2018-12-26T21:51:26.525Z,35.57
2018-12-26T21:53:55.181Z,43.63
2018-12-26T21:56:23.784Z,37.53
2018-12-26T21:58:52.368Z,38.83
2018-12-26T22:01:21.075Z,40.40
2018-12-26T22:03:49.650Z,36.00
2018-12-26T22:06:18.340Z,35.83
2018-12-26T22:08:48.644Z,33.13
2018-12-26T22:11:36.571Z,35.33
2018-12-26T22:14:05.378Z,29.77
2018-12-26T22:16:34.339Z,34.87
2018-12-26T22:19:02.969Z,38.70
2018-12-26T22:21:31.608Z,31.03
2018-12-26T22:24:19.753Z,30.83
2018-12-26T22:26:48.339Z,36.03
2018-12-26T22:29:16.952Z,41.07
2018-12-26T22:31:45.561Z,46.17
2018-12-26T22:34:14.140Z,36.27
2018-12-26T22:36:42.711Z,36.73
2018-12-26T22:39:11.388Z,41.40
2018-12-26T22:41:41.609Z,39.00
2018-12-26T22:44:10.214Z,32.00
2018-12-26T22:46:57.977Z,30.73
2018-12-26T22:49:26.761Z,32.53
2018-12-26T22:51:55.548Z,31.93
2018-12-26T22:54:24.138Z,29.00
2018-12-26T22:56:52.905Z,29.57
2018-12-26T22:59:21.816Z,27.40
2018-12-26T23:01:50.369Z,36.88
2018-12-26T23:04:19.163Z,35.13
2018-12-26T23:06:47.830Z,25.70
2018-12-26T23:09:16.425Z,28.37
2018-12-26T23:11:45.010Z,30.33
2018-12-26T23:14:13.805Z,34.20
2018-12-26T23:16:42.392Z,29.63
2018-12-26T23:19:11.039Z,27.17
2018-12-26T23:21:39.638Z,28.73
2018-12-26T23:24:08.245Z,28.50
2018-12-26T23:26:36.821Z,27.40
2018-12-26T23:29:05.404Z,28.93
2018-12-26T23:31:33.991Z,31.00
2018-12-26T23:34:02.582Z,27.23
2018-12-26T23:36:31.151Z,26.77
2018-12-26T23:38:59.739Z,28.73
2018-12-26T23:41:29.968Z,25.20
2018-12-26T23:43:58.641Z,29.23
2018-12-26T23:46:27.233Z,27.63
2018-12-26T23:48:55.806Z,31.37
2018-12-26T23:51:24.401Z,28.30
2018-12-26T23:54:13.652Z,31.63
2018-12-26T23:56:42.220Z,26.07
2018-12-26T23:59:10.806Z,27.63
